Time;durP1;ratioP1;P1;durP2;ratioP2;P2;SDS_P1;SDS_P2;PMS_P1;PMS_P2;Temp;Humidity;BMP_temperature;BMP_pressure;BME280_temperature;BME280_humidity;BME280_pressure;Samples;Min_cycle;Max_cycle;Signal;HPM_P1;HPM_P2
2023/07/10 00:00:20;;;;;;;36.67;26.55;;;17.80;99.90;;;;;;4945410;28;20059;-66
2023/07/10 00:02:46;;;;;;;34.45;27.52;;;17.90;99.90;;;;;;4947692;28;20501;-67
2023/07/10 00:05:13;;;;;;;34.92;25.30;;;;;;;;;;4948703;28;20031;-66
2023/07/10 00:07:39;;;;;;;43.90;28.95;;;18.80;99.90;;;;;;4944291;28;20088;-67
2023/07/10 00:10:05;;;;;;;32.17;24.92;;;18.10;99.90;;;;;;4953262;28;20110;-67
2023/07/10 00:12:31;;;;;;;33.03;24.85;;;18.00;99.90;;;;;;4952787;28;20048;-66
2023/07/10 00:14:56;;;;;;;39.28;29.00;;;17.60;99.90;;;;;;4951103;28;20053;-66
2023/07/10 00:17:22;;;;;;;32.70;25.15;;;18.40;99.90;;;;;;4953062;28;20047;-66
2023/07/10 00:19:48;;;;;;;36.72;27.13;;;18.80;99.90;;;;;;4952089;28;20039;-66
2023/07/10 00:22:13;;;;;;;35.03;25.08;;;18.10;99.90;;;;;;4952665;28;20035;-66
2023/07/10 00:24:39;;;;;;;39.55;28.20;;;18.30;99.90;;;;;;4952233;28;20043;-66
2023/07/10 00:27:12;;;;;;;35.60;26.48;;;18.40;99.90;;;;;;4952600;28;20035;-66
2023/07/10 00:29:38;;;;;;;31.05;25.67;;;18.40;99.90;;;;;;4951257;28;20046;-66
2023/07/10 00:32:12;;;;;;;31.63;24.40;;;18.20;99.90;;;;;;4951752;28;20039;-66
2023/07/10 00:34:38;;;;;;;51.53;31.27;;;19.00;99.90;;;;;;4942986;28;20055;-67
2023/07/10 00:37:04;;;;;;;32.90;24.75;;;18.10;99.90;;;;;;4948916;28;20519;-67
2023/07/10 00:39:33;;;;;;;40.72;27.67;;;18.70;99.90;;;;;;4952197;28;20053;-66
2023/07/10 00:42:01;;;;;;;63.17;32.88;;;18.10;99.90;;;;;;4949907;28;20054;-67
2023/07/10 00:44:35;;;;;;;33.65;23.10;;;18.10;99.90;;;;;;4943243;28;20111;-66
2023/07/10 00:47:12;;;;;;;34.72;24.40;;;18.20;99.90;;;;;;4950963;28;20496;-66
2023/07/10 00:49:56;;;;;;;36.75;25.92;;;17.70;99.90;;;;;;4951276;28;20043;-66
2023/07/10 00:52:43;;;;;;;30.60;21.98;;;;;;;;;;4952256;28;20456;-66
2023/07/10 00:55:22;;;;;;;27.38;18.92;;;18.40;99.90;;;;;;4934526;29;20383;-67
2023/07/10 00:57:54;;;;;;;24.45;17.73;;;17.60;99.90;;;;;;4950752;28;20497;-67
2023/07/10 01:00:22;;;;;;;20.83;17.25;;;17.70;99.90;;;;;;4950929;28;20098;-67
2023/07/10 01:02:48;;;;;;;27.38;16.10;;;18.40;99.90;;;;;;4934466;28;20047;-66
2023/07/10 01:05:16;;;;;;;27.23;19.35;;;17.70;99.90;;;;;;4951855;28;20401;-67
2023/07/10 01:07:47;;;;;;;24.33;16.35;;;;;;;;;;4951132;28;20097;-67
2023/07/10 01:10:14;;;;;;;24.35;16.98;;;;;;;;;;4952028;28;20121;-67
2023/07/10 01:12:42;;;;;;;18.85;14.40;;;;;;;;;;4944795;28;20600;-67
2023/07/10 01:15:09;;;;;;;23.88;15.02;;;;;;;;;;4946331;28;20081;-67
2023/07/10 01:17:35;;;;;;;18.73;13.32;;;17.80;99.90;;;;;;4948941;28;20099;-67
2023/07/10 01:20:49;;;;;;;16.45;11.18;;;17.80;99.90;;;;;;4946599;28;20097;-66
2023/07/10 01:23:16;;;;;;;15.65;9.77;;;17.90;99.90;;;;;;4903526;28;20087;-67
2023/07/10 01:25:46;;;;;;;12.88;8.20;;;;;;;;;;4948842;28;20055;-66
2023/07/10 01:28:16;;;;;;;16.13;10.40;;;17.80;99.90;;;;;;4942775;28;20042;-66
2023/07/10 01:30:43;;;;;;;11.48;7.90;;;17.40;99.90;;;;;;4951541;28;20039;-67
2023/07/10 01:33:21;;;;;;;12.52;8.32;;;17.50;99.90;;;;;;4951288;28;20382;-67
2023/07/10 01:35:51;;;;;;;12.60;7.43;;;17.50;99.90;;;;;;4950415;28;20040;-67
2023/07/10 01:38:17;;;;;;;14.68;7.18;;;17.70;99.90;;;;;;4951376;28;20049;-66
2023/07/10 01:40:51;;;;;;;14.30;7.72;;;17.60;99.90;;;;;;4951866;28;20118;-66
2023/07/10 01:43:16;;;;;;;10.60;7.53;;;17.60;99.90;;;;;;4950279;28;20110;-66
2023/07/10 01:45:45;;;;;;;11.63;7.55;;;17.20;99.90;;;;;;4951242;28;20083;-66
2023/07/10 01:48:12;;;;;;;11.27;6.72;;;;;;;;;;4951593;28;20032;-66
2023/07/10 01:50:38;;;;;;;10.45;6.70;;;17.60;99.90;;;;;;4953081;28;20039;-66
2023/07/10 01:53:06;;;;;;;12.15;5.72;;;17.40;99.80;;;;;;4954574;28;20049;-67
2023/07/10 01:55:43;;;;;;;13.82;6.40;;;17.80;80.00;;;;;;4947970;28;20051;-66
2023/07/10 01:58:10;;;;;;;13.13;6.90;;;17.20;80.50;;;;;;4954130;28;20057;-66
2023/07/10 02:00:36;;;;;;;11.70;6.57;;;17.40;87.20;;;;;;4955460;28;20370;-66
2023/07/10 02:03:01;;;;;;;10.32;5.70;;;17.30;85.30;;;;;;4952763;28;20042;-66
2023/07/10 02:05:27;;;;;;;9.88;5.57;;;17.60;67.40;;;;;;4953504;28;20410;-66
2023/07/10 02:07:53;;;;;;;8.65;5.50;;;17.20;56.00;;;;;;4955042;28;20138;-66
2023/07/10 02:10:18;;;;;;;8.27;5.00;;;17.40;45.20;;;;;;4954662;28;20035;-66
2023/07/10 02:12:44;;;;;;;7.95;4.65;;;17.30;3.50;;;;;;4955056;28;20094;-65
2023/07/10 02:15:10;;;;;;;8.50;4.07;;;17.20;1.00;;;;;;4953578;28;21524;-66
2023/07/10 02:17:36;;;;;;;9.30;4.45;;;16.90;1.00;;;;;;4954854;28;20035;-66
2023/07/10 02:20:01;;;;;;;9.00;4.20;;;17.00;1.00;;;;;;4950947;28;20053;-65
2023/07/10 02:22:27;;;;;;;8.82;4.32;;;17.10;1.00;;;;;;4949649;28;20035;-65
2023/07/10 02:24:53;;;;;;;6.80;3.30;;;17.10;99.90;;;;;;4957188;28;20086;-66
2023/07/10 02:27:19;;;;;;;6.03;2.90;;;16.80;99.90;;;;;;4953790;28;20047;-65
2023/07/10 02:29:44;;;;;;;6.32;2.65;;;17.10;1.00;;;;;;4954650;28;20412;-65
2023/07/10 02:32:10;;;;;;;6.57;2.65;;;17.30;1.00;;;;;;4952619;28;20050;-65
2023/07/10 02:34:36;;;;;;;6.72;3.00;;;16.90;1.00;;;;;;4953832;28;20059;-65
2023/07/10 02:37:02;;;;;;;10.50;3.45;;;16.90;1.00;;;;;;4936231;28;20047;-65
2023/07/10 02:39:27;;;;;;;6.18;3.13;;;16.90;1.00;;;;;;4954048;28;20053;-65
2023/07/10 02:41:53;;;;;;;8.32;3.20;;;;;;;;;;4952754;28;20048;-66
2023/07/10 02:44:19;;;;;;;6.97;3.28;;;16.70;1.00;;;;;;4953349;28;20501;-66
2023/07/10 02:46:45;;;;;;;9.07;3.53;;;17.10;1.00;;;;;;4954348;28;20031;-65
2023/07/10 02:49:10;;;;;;;8.85;3.90;;;16.70;1.00;;;;;;4953791;28;20039;-65
2023/07/10 02:51:36;;;;;;;9.32;3.47;;;16.40;1.00;;;;;;4950246;28;20041;-65
2023/07/10 02:54:09;;;;;;;9.15;3.95;;;;;;;;;;4950975;28;20061;-65
2023/07/10 02:56:35;;;;;;;7.33;3.53;;;;;;;;;;4952856;28;20043;-66
2023/07/10 02:59:01;;;;;;;9.52;3.50;;;16.60;1.00;;;;;;4953630;28;20641;-65
2023/07/10 03:01:27;;;;;;;9.07;3.92;;;16.60;1.00;;;;;;4952923;28;20118;-65
2023/07/10 03:03:53;;;;;;;9.35;3.88;;;;;;;;;;4954051;28;20433;-65
2023/07/10 03:06:20;;;;;;;10.05;3.90;;;17.20;1.00;;;;;;4952374;28;20035;-65
2023/07/10 03:08:47;;;;;;;8.65;3.80;;;16.70;1.00;;;;;;4953888;28;20062;-67
2023/07/10 03:11:14;;;;;;;6.38;3.50;;;;;;;;;;4952799;28;20067;-67
2023/07/10 03:13:40;;;;;;;8.10;4.13;;;16.70;1.00;;;;;;4953962;28;20055;-66
2023/07/10 03:16:08;;;;;;;8.82;3.92;;;;;;;;;;4953506;28;20093;-65
2023/07/10 03:18:33;;;;;;;11.18;3.97;;;16.70;1.00;;;;;;4953422;28;20043;-66
2023/07/10 03:20:59;;;;;;;6.43;2.97;;;17.10;1.00;;;;;;4950453;28;20413;-66
2023/07/10 03:23:25;;;;;;;6.82;3.20;;;16.60;99.90;;;;;;4941852;28;20445;-65
2023/07/10 03:25:51;;;;;;;8.63;3.58;;;16.70;99.90;;;;;;4944332;28;20046;-66
2023/07/10 03:28:19;;;;;;;8.65;3.58;;;17.00;99.90;;;;;;4952288;28;20046;-67
2023/07/10 03:30:45;;;;;;;6.35;2.88;;;16.70;99.90;;;;;;4953554;28;20042;-67
2023/07/10 03:33:16;;;;;;;6.95;2.88;;;17.20;99.90;;;;;;4952959;28;20193;-65
2023/07/10 03:35:42;;;;;;;7.68;2.75;;;16.90;99.90;;;;;;4952017;28;20418;-66
2023/07/10 03:38:08;;;;;;;7.07;3.30;;;17.00;99.90;;;;;;4951597;28;20043;-65
2023/07/10 03:40:34;;;;;;;7.93;3.22;;;17.10;99.90;;;;;;4952427;28;20053;-65
2023/07/10 03:43:00;;;;;;;7.18;3.08;;;16.80;99.90;;;;;;4951557;28;20165;-65
2023/07/10 03:45:26;;;;;;;7.93;3.17;;;17.00;99.90;;;;;;4953006;28;20039;-66
2023/07/10 03:47:51;;;;;;;7.03;3.22;;;16.70;99.90;;;;;;4948095;28;20209;-65
2023/07/10 03:50:18;;;;;;;8.40;3.05;;;17.20;99.90;;;;;;4952882;28;20130;-65
2023/07/10 03:52:43;;;;;;;5.90;3.00;;;16.70;99.90;;;;;;4945936;28;20036;-66
2023/07/10 03:55:10;;;;;;;6.20;3.28;;;17.00;99.90;;;;;;4950800;28;20090;-66
2023/07/10 03:57:35;;;;;;;7.28;3.42;;;17.00;99.90;;;;;;4947020;28;20101;-65
2023/07/10 04:00:01;;;;;;;9.25;3.17;;;16.30;99.90;;;;;;4953145;28;20126;-66
2023/07/10 04:02:27;;;;;;;7.57;3.33;;;16.80;99.90;;;;;;4952845;28;20482;-66
2023/07/10 04:04:52;;;;;;;9.70;4.03;;;16.80;99.90;;;;;;4953090;28;20362;-66
2023/07/10 04:07:18;;;;;;;6.60;3.17;;;17.10;99.90;;;;;;4951398;28;20510;-65
2023/07/10 04:09:43;;;;;;;11.18;4.47;;;16.90;99.90;;;;;;4951823;28;20086;-65
2023/07/10 04:12:10;;;;;;;8.57;4.07;;;;;;;;;;4952445;28;20394;-66
2023/07/10 04:14:38;;;;;;;9.35;4.20;;;16.90;99.90;;;;;;4945723;28;20752;-65
2023/07/10 04:17:04;;;;;;;9.60;4.13;;;16.90;99.90;;;;;;4951274;28;20414;-66
2023/07/10 04:19:30;;;;;;;8.93;3.65;;;16.90;99.90;;;;;;4952667;28;20045;-66
2023/07/10 04:21:55;;;;;;;8.20;4.47;;;16.80;99.90;;;;;;4953025;28;20210;-66
2023/07/10 04:24:21;;;;;;;9.80;4.68;;;16.90;99.90;;;;;;4951521;28;20058;-66
2023/07/10 04:26:47;;;;;;;10.00;4.55;;;17.30;99.90;;;;;;4952689;28;20035;-65
2023/07/10 04:29:13;;;;;;;9.40;4.63;;;16.30;99.90;;;;;;4952188;28;20461;-65
2023/07/10 04:31:38;;;;;;;9.85;5.22;;;16.90;99.90;;;;;;4951708;28;20138;-65
2023/07/10 04:34:04;;;;;;;10.40;5.80;;;17.00;99.90;;;;;;4951369;28;20114;-66
2023/07/10 04:36:30;;;;;;;8.50;5.13;;;17.30;99.90;;;;;;4952622;28;20050;-65
2023/07/10 04:38:55;;;;;;;12.00;6.03;;;17.20;99.90;;;;;;4952682;28;20035;-65
2023/07/10 04:41:23;;;;;;;13.30;5.95;;;;;;;;;;4951885;28;20043;-66
2023/07/10 04:43:49;;;;;;;9.73;5.45;;;16.90;99.90;;;;;;4946088;28;20043;-65
2023/07/10 04:46:16;;;;;;;13.82;5.95;;;;;;;;;;4950240;28;20035;-65
2023/07/10 04:48:44;;;;;;;9.98;5.05;;;17.00;99.90;;;;;;4934254;28;22844;-66
2023/07/10 04:51:12;;;;;;;9.15;5.25;;;16.50;99.90;;;;;;4925336;28;20063;-65
2023/07/10 04:53:38;;;;;;;12.60;6.07;;;;;;;;;;4943502;28;20110;-65
2023/07/10 04:56:05;;;;;;;11.77;6.07;;;;;;;;;;4948063;28;20036;-66
2023/07/10 04:58:46;;;;;;;11.50;5.82;;;17.00;99.90;;;;;;4936267;28;20044;-66
2023/07/10 05:01:12;;;;;;;13.13;5.60;;;17.20;99.90;;;;;;4954699;28;20084;-65
2023/07/10 05:03:38;;;;;;;12.98;5.90;;;17.40;99.90;;;;;;4941816;28;20119;-66
2023/07/10 05:06:04;;;;;;;12.13;5.72;;;17.40;99.90;;;;;;4954730;28;20067;-66
2023/07/10 05:08:29;;;;;;;14.75;5.70;;;16.70;99.90;;;;;;4941515;28;20101;-66
2023/07/10 05:10:56;;;;;;;14.43;5.75;;;;;;;;;;4938721;28;20036;-65
2023/07/10 05:13:26;;;;;;;13.55;5.60;;;17.30;99.90;;;;;;4941513;28;22397;-65
2023/07/10 05:15:53;;;;;;;13.10;5.53;;;17.30;99.90;;;;;;4942206;28;20179;-65
2023/07/10 05:18:19;;;;;;;14.65;5.45;;;17.30;99.90;;;;;;4953860;28;21061;-66
2023/07/10 05:20:46;;;;;;;12.60;5.25;;;17.30;99.90;;;;;;4948504;28;20379;-65
2023/07/10 05:23:13;;;;;;;14.73;5.60;;;17.40;99.90;;;;;;4949275;28;20405;-66
2023/07/10 05:25:38;;;;;;;13.82;6.13;;;17.10;99.90;;;;;;4949175;28;20413;-65
2023/07/10 05:28:05;;;;;;;14.68;6.13;;;17.30;99.90;;;;;;4949908;28;20035;-66
2023/07/10 05:30:30;;;;;;;12.75;5.15;;;16.90;99.90;;;;;;4951522;28;20042;-66
2023/07/10 05:32:56;;;;;;;13.90;5.45;;;17.40;99.90;;;;;;4951563;28;20039;-66
2023/07/10 05:35:22;;;;;;;11.23;5.65;;;16.90;99.90;;;;;;4950972;28;20058;-65
2023/07/10 05:37:48;;;;;;;15.35;5.60;;;17.30;99.90;;;;;;4950399;28;20047;-66
2023/07/10 05:40:15;;;;;;;10.77;5.45;;;;;;;;;;4951242;28;20050;-65
2023/07/10 05:42:42;;;;;;;13.68;6.35;;;17.30;99.90;;;;;;4949772;28;20508;-66
2023/07/10 05:45:08;;;;;;;10.45;5.50;;;17.60;99.90;;;;;;4950958;28;20079;-66
2023/07/10 05:47:34;;;;;;;15.68;6.28;;;17.40;99.90;;;;;;4950252;28;20046;-65
2023/07/10 05:49:59;;;;;;;10.05;5.38;;;17.30;99.90;;;;;;4951545;28;20526;-66
2023/07/10 05:52:25;;;;;;;10.50;5.32;;;17.60;99.90;;;;;;4951125;28;20042;-67
2023/07/10 05:54:52;;;;;;;14.57;5.32;;;17.60;99.90;;;;;;4950929;28;20118;-65
2023/07/10 05:57:18;;;;;;;11.18;5.20;;;17.20;99.90;;;;;;4951320;28;20067;-66
2023/07/10 05:59:44;;;;;;;11.50;5.10;;;17.60;99.90;;;;;;4951461;28;20501;-66
2023/07/10 06:02:11;;;;;;;16.50;5.45;;;17.50;99.90;;;;;;4951527;28;20032;-66
2023/07/10 06:04:36;;;;;;;13.55;5.10;;;17.40;99.90;;;;;;4954057;28;20042;-66
2023/07/10 06:07:02;;;;;;;15.43;4.68;;;17.80;99.90;;;;;;4951348;28;20043;-66
2023/07/10 06:09:28;;;;;;;10.15;4.50;;;18.00;99.90;;;;;;4950882;28;20042;-66
2023/07/10 06:11:53;;;;;;;13.63;4.35;;;18.00;99.90;;;;;;4951587;28;20035;-65
2023/07/10 06:14:19;;;;;;;12.70;4.97;;;;;;;;;;4950870;28;20185;-66
2023/07/10 06:16:45;;;;;;;11.05;4.32;;;;;;;;;;4950607;28;20048;-65
2023/07/10 06:19:11;;;;;;;9.57;3.90;;;17.60;99.90;;;;;;4934226;28;20050;-66
2023/07/10 06:21:37;;;;;;;11.70;3.88;;;17.90;99.90;;;;;;4949903;28;20058;-66
2023/07/10 06:24:04;;;;;;;13.57;4.20;;;18.10;99.90;;;;;;4949363;28;20073;-66
2023/07/10 06:26:30;;;;;;;11.80;4.07;;;18.20;99.90;;;;;;4964735;28;20042;-66
2023/07/10 06:28:55;;;;;;;10.07;4.30;;;19.10;99.90;;;;;;4951533;28;20031;-66
2023/07/10 06:31:21;;;;;;;11.35;3.70;;;;;;;;;;4951267;28;20202;-66
2023/07/10 06:33:47;;;;;;;12.05;3.67;;;18.40;99.90;;;;;;4951105;28;20043;-66
2023/07/10 06:36:13;;;;;;;10.85;3.92;;;19.10;99.90;;;;;;4954645;28;20043;-65
2023/07/10 06:38:39;;;;;;;9.45;3.53;;;18.40;99.90;;;;;;4953635;28;20045;-65
2023/07/10 06:41:05;;;;;;;10.70;3.30;;;18.10;99.90;;;;;;4955304;28;20039;-65
2023/07/10 06:43:31;;;;;;;11.20;3.67;;;19.40;99.90;;;;;;4952727;28;20051;-66
2023/07/10 06:45:57;;;;;;;10.90;3.83;;;18.30;99.90;;;;;;4954721;28;20122;-66
2023/07/10 06:48:23;;;;;;;11.35;3.42;;;18.30;99.90;;;;;;4953120;28;20035;-66
2023/07/10 06:50:53;;;;;;;13.52;3.60;;;19.10;99.90;;;;;;4955185;28;20098;-66
2023/07/10 06:53:19;;;;;;;15.55;5.00;;;19.10;99.90;;;;;;4954906;28;20027;-66
2023/07/10 06:55:50;;;;;;;8.77;3.55;;;19.00;99.90;;;;;;4953446;28;20047;-67
2023/07/10 06:58:16;;;;;;;11.82;3.60;;;19.50;99.90;;;;;;4954614;28;20039;-66
2023/07/10 07:00:42;;;;;;;9.80;3.50;;;18.40;99.90;;;;;;4953282;28;20533;-66
2023/07/10 07:03:09;;;;;;;11.55;3.67;;;19.60;99.90;;;;;;4954808;28;20508;-66
2023/07/10 07:05:34;;;;;;;12.07;3.22;;;19.60;99.90;;;;;;4953883;28;20074;-66
2023/07/10 07:08:00;;;;;;;11.95;4.03;;;19.20;99.90;;;;;;4953471;28;20067;-66
2023/07/10 07:10:26;;;;;;;9.25;3.38;;;19.70;82.40;;;;;;4954194;28;20039;-67
2023/07/10 07:12:51;;;;;;;12.48;3.55;;;19.40;47.30;;;;;;4954118;28;20039;-66
2023/07/10 07:15:18;;;;;;;12.05;3.60;;;;;;;;;;4953870;28;20158;-66
2023/07/10 07:17:44;;;;;;;16.98;4.93;;;19.20;64.90;;;;;;4956575;28;20038;-67
2023/07/10 07:20:10;;;;;;;11.00;3.15;;;19.50;44.30;;;;;;4958688;28;20053;-67
2023/07/10 07:22:36;;;;;;;12.88;3.97;;;;;;;;;;4953630;28;20058;-64
2023/07/10 07:25:02;;;;;;;12.20;3.63;;;19.70;52.50;;;;;;4953492;28;20461;-65
2023/07/10 07:27:31;;;;;;;10.68;3.58;;;18.70;43.70;;;;;;4953743;28;20041;-65
2023/07/10 07:29:57;;;;;;;10.77;3.78;;;;;;;;;;4952401;28;20510;-65
2023/07/10 07:32:23;;;;;;;12.15;4.22;;;19.50;77.40;;;;;;4952400;28;20629;-65
2023/07/10 07:34:48;;;;;;;14.65;4.30;;;19.50;35.00;;;;;;4953490;28;20098;-65
2023/07/10 07:37:14;;;;;;;14.13;4.35;;;19.60;40.50;;;;;;4953871;28;20058;-65
2023/07/10 07:39:40;;;;;;;13.75;4.05;;;19.30;75.50;;;;;;4936105;28;20051;-66
2023/07/10 07:42:06;;;;;;;11.05;3.78;;;19.90;33.90;;;;;;4953338;28;20129;-66
2023/07/10 07:44:32;;;;;;;12.93;3.97;;;20.20;39.90;;;;;;5005655;23;20138;-63
2023/07/10 07:46:58;;;;;;;11.43;3.30;;;20.20;1.00;;;;;;5006651;28;20062;-63
2023/07/10 07:49:24;;;;;;;8.98;3.63;;;19.90;1.00;;;;;;5005173;28;20046;-63
2023/07/10 07:51:51;;;;;;;9.77;3.60;;;19.90;1.00;;;;;;5007857;28;20492;-63
2023/07/10 07:54:17;;;;;;;18.00;3.95;;;19.50;1.00;;;;;;4984446;28;20053;-64
2023/07/10 07:56:42;;;;;;;13.70;4.38;;;19.60;1.00;;;;;;4989363;28;20652;-63
2023/07/10 07:59:08;;;;;;;13.27;4.28;;;19.00;1.00;;;;;;4992311;28;20073;-64
2023/07/10 08:01:34;;;;;;;10.77;3.80;;;19.90;1.00;;;;;;4984885;28;20038;-64
2023/07/10 08:04:00;;;;;;;10.90;3.33;;;19.30;1.00;;;;;;4990402;28;20069;-64
2023/07/10 08:06:29;;;;;;;14.88;4.30;;;20.00;1.00;;;;;;4977337;28;20034;-63
2023/07/10 08:08:56;;;;;;;12.82;3.75;;;19.90;1.00;;;;;;4982629;28;20030;-63
2023/07/10 08:11:22;;;;;;;11.13;3.45;;;20.00;1.00;;;;;;4975681;28;20061;-63
2023/07/10 08:13:49;;;;;;;10.50;3.95;;;20.30;1.00;;;;;;4978733;28;20383;-63
2023/07/10 08:16:15;;;;;;;8.85;3.55;;;20.00;1.00;;;;;;4992970;28;20356;-63
2023/07/10 08:18:41;;;;;;;11.15;3.65;;;19.90;99.90;;;;;;4976938;28;20071;-63
2023/07/10 08:21:08;;;;;;;12.65;3.50;;;;;;;;;;5002062;28;20112;-63
2023/07/10 08:23:34;;;;;;;17.83;4.75;;;20.20;99.90;;;;;;4976954;28;20170;-63
2023/07/10 08:26:00;;;;;;;9.98;3.40;;;20.20;99.90;;;;;;4981756;28;20087;-63
2023/07/10 08:28:26;;;;;;;12.63;4.10;;;20.20;1.00;;;;;;4985102;28;20070;-62
2023/07/10 08:30:51;;;;;;;9.52;3.67;;;20.20;1.00;;;;;;4983739;28;20069;-63
2023/07/10 08:33:17;;;;;;;13.57;4.00;;;20.30;1.00;;;;;;4992882;28;20099;-64
2023/07/10 08:35:43;;;;;;;12.55;3.33;;;20.20;99.90;;;;;;4985785;28;20078;-63
2023/07/10 08:38:09;;;;;;;15.23;4.85;;;20.40;99.90;;;;;;5003075;28;20551;-63
2023/07/10 08:40:37;;;;;;;11.82;4.10;;;20.20;99.90;;;;;;4991487;28;20311;-63
2023/07/10 08:43:30;;;;;;;14.32;4.78;;;20.00;99.90;;;;;;4985818;28;20102;-63
2023/07/10 08:46:12;;;;;;;10.38;3.75;;;20.40;99.90;;;;;;4976075;28;20050;-63
2023/07/10 08:48:46;;;;;;;11.70;4.38;;;20.10;99.90;;;;;;4984733;28;20500;-63
2023/07/10 08:51:24;;;;;;;12.80;3.88;;;20.30;99.90;;;;;;4986913;28;20034;-63
2023/07/10 08:54:08;;;;;;;11.25;3.67;;;20.70;99.90;;;;;;4989307;28;20066;-63
2023/07/10 08:56:42;;;;;;;11.30;4.03;;;19.80;99.90;;;;;;4989992;28;20105;-63
2023/07/10 08:59:26;;;;;;;13.10;3.75;;;20.50;99.90;;;;;;4980343;28;20034;-63
2023/07/10 09:01:54;;;;;;;11.57;4.38;;;20.50;99.90;;;;;;4987593;28;20382;-63
2023/07/10 09:04:21;;;;;;;12.35;4.05;;;20.60;99.90;;;;;;4984288;28;20097;-63
2023/07/10 09:06:57;;;;;;;10.00;3.67;;;21.30;99.90;;;;;;4989093;28;20050;-63
2023/07/10 09:09:29;;;;;;;13.80;3.85;;;20.90;99.90;;;;;;4993724;28;20046;-63
2023/07/10 09:12:00;;;;;;;14.50;4.72;;;20.60;99.90;;;;;;4980545;28;20046;-63
2023/07/10 09:14:56;;;;;;;13.82;3.72;;;20.50;99.90;;;;;;4990578;28;20038;-63
2023/07/10 09:17:36;;;;;;;15.82;4.97;;;20.30;99.90;;;;;;4979415;28;20125;-63
2023/07/10 09:20:05;;;;;;;11.32;3.63;;;20.50;99.90;;;;;;4989148;28;20104;-62
2023/07/10 09:22:33;;;;;;;10.45;3.40;;;20.50;99.90;;;;;;4984203;28;20070;-63
2023/07/10 09:24:59;;;;;;;12.88;4.35;;;20.40;99.90;;;;;;4977657;28;20046;-63
2023/07/10 09:27:25;;;;;;;10.35;3.03;;;20.30;99.90;;;;;;4978614;28;20046;-62
2023/07/10 09:29:52;;;;;;;9.40;3.50;;;20.80;99.90;;;;;;4982273;28;20041;-62
2023/07/10 09:32:19;;;;;;;10.80;3.40;;;20.70;99.90;;;;;;4989251;28;20046;-63
2023/07/10 09:34:58;;;;;;;10.68;3.67;;;20.90;99.90;;;;;;4980210;28;20177;-62
2023/07/10 09:37:32;;;;;;;12.02;4.47;;;20.60;99.90;;;;;;4986258;28;20038;-62
2023/07/10 09:40:17;;;;;;;13.60;3.70;;;20.70;99.90;;;;;;4982498;28;20034;-62
2023/07/10 09:42:43;;;;;;;12.18;3.95;;;;;;;;;;4989406;28;20138;-62
2023/07/10 09:45:09;;;;;;;10.70;3.15;;;20.90;99.90;;;;;;4988681;28;20088;-62
2023/07/10 09:47:48;;;;;;;9.93;4.47;;;20.90;99.90;;;;;;4990277;28;20082;-62
2023/07/10 09:50:15;;;;;;;12.05;3.95;;;21.30;99.90;;;;;;4982754;28;20045;-62
2023/07/10 09:52:42;;;;;;;10.30;3.72;;;21.10;99.90;;;;;;4985827;28;20111;-62
2023/07/10 09:55:08;;;;;;;13.27;3.88;;;21.10;99.90;;;;;;4984160;28;20062;-62
2023/07/10 09:58:04;;;;;;;12.27;3.70;;;21.30;99.90;;;;;;4985221;28;20076;-62
2023/07/10 10:00:30;;;;;;;14.40;4.07;;;21.20;99.90;;;;;;4976897;28;20050;-62
2023/07/10 10:03:02;;;;;;;10.88;4.22;;;22.00;99.90;;;;;;4978762;28;20039;-62
2023/07/10 10:05:28;;;;;;;12.70;3.38;;;21.40;99.90;;;;;;4987248;28;20113;-62
2023/07/10 10:08:01;;;;;;;8.77;3.30;;;20.80;99.90;;;;;;4981986;28;20408;-62
2023/07/10 10:10:37;;;;;;;12.50;3.73;;;21.70;99.90;;;;;;4989844;28;20046;-63
2023/07/10 10:13:24;;;;;;;9.10;3.40;;;20.50;99.90;;;;;;4993812;28;20400;-62
2023/07/10 10:16:20;;;;;;;12.70;3.30;;;21.30;99.90;;;;;;4980945;28;20042;-62
2023/07/10 10:19:06;;;;;;;15.18;3.60;;;21.00;99.90;;;;;;4992489;28;20408;-62
2023/07/10 10:21:34;;;;;;;11.55;3.28;;;20.80;99.90;;;;;;4993738;28;20046;-62
2023/07/10 10:24:05;;;;;;;12.77;3.47;;;20.90;99.90;;;;;;4949391;28;20472;-62
2023/07/10 10:26:46;;;;;;;12.32;3.28;;;21.40;99.90;;;;;;4988411;28;20070;-62
2023/07/10 10:29:30;;;;;;;7.20;2.72;;;21.80;99.90;;;;;;4974561;28;20046;-62
2023/07/10 10:32:08;;;;;;;8.07;2.72;;;20.80;99.90;;;;;;4991874;28;20121;-62
2023/07/10 10:34:45;;;;;;;8.90;3.00;;;20.70;99.90;;;;;;4992873;28;20042;-62
2023/07/10 10:37:52;;;;;;;11.23;4.57;;;22.20;99.90;;;;;;4983000;28;20039;-62
2023/07/10 10:40:49;;;;;;;7.53;2.95;;;21.00;99.90;;;;;;4993253;28;20100;-62
2023/07/10 10:43:33;;;;;;;8.43;3.05;;;20.90;99.90;;;;;;4983359;28;20060;-62
2023/07/10 10:46:13;;;;;;;9.13;2.95;;;21.40;99.90;;;;;;4992284;28;20303;-62
2023/07/10 10:49:10;;;;;;;13.82;3.30;;;22.20;99.90;;;;;;4985314;28;20050;-62
2023/07/10 10:52:00;;;;;;;9.98;2.30;;;21.30;99.90;;;;;;4987439;28;20515;-62
2023/07/10 10:54:45;;;;;;;9.18;2.42;;;21.90;97.70;;;;;;4989257;28;20096;-62
2023/07/10 10:57:29;;;;;;;9.05;2.67;;;21.90;81.70;;;;;;4981601;28;20180;-62
2023/07/10 11:00:05;;;;;;;6.60;2.33;;;22.10;81.60;;;;;;4983341;28;20216;-62
2023/07/10 11:02:39;;;;;;;8.32;2.30;;;21.90;16.70;;;;;;4991127;28;20492;-62
2023/07/10 11:05:29;;;;;;;9.45;2.50;;;22.40;1.30;;;;;;4990513;28;20081;-62
2023/07/10 11:07:59;;;;;;;7.78;2.22;;;21.40;1.00;;;;;;4990253;28;20034;-62
2023/07/10 11:10:36;;;;;;;10.45;2.70;;;22.70;1.00;;;;;;4987913;28;20062;-62
2023/07/10 11:13:04;;;;;;;7.63;2.70;;;22.20;1.00;;;;;;4989473;28;20302;-62
2023/07/10 11:15:33;;;;;;;8.18;2.28;;;22.50;1.00;;;;;;4987283;28;20038;-62
2023/07/10 11:18:00;;;;;;;6.47;2.00;;;22.40;1.00;;;;;;4988422;28;20046;-62
2023/07/10 11:20:26;;;;;;;8.45;2.45;;;21.70;99.90;;;;;;4987626;28;20404;-64
2023/07/10 11:22:55;;;;;;;9.88;2.60;;;22.20;99.90;;;;;;4983232;28;20053;-62
2023/07/10 11:25:33;;;;;;;10.70;2.75;;;22.80;99.90;;;;;;4987889;28;20035;-62
2023/07/10 11:28:24;;;;;;;11.15;2.47;;;22.30;1.00;;;;;;4988599;28;20042;-62
2023/07/10 11:31:11;;;;;;;11.50;2.88;;;23.00;99.90;;;;;;4989973;28;20038;-62
2023/07/10 11:33:37;;;;;;;8.82;2.40;;;22.30;99.90;;;;;;4982902;28;20039;-62
2023/07/10 11:36:16;;;;;;;6.32;2.30;;;22.30;99.90;;;;;;4990621;28;20035;-62
2023/07/10 11:39:09;;;;;;;8.98;2.35;;;22.40;99.90;;;;;;4988880;28;20449;-63
2023/07/10 11:41:44;;;;;;;9.90;2.05;;;;;;;;;;4979407;28;20118;-62
2023/07/10 11:44:21;;;;;;;7.68;2.15;;;22.50;99.90;;;;;;4987596;28;20101;-62
2023/07/10 11:47:05;;;;;;;7.38;2.50;;;22.40;99.90;;;;;;4982632;28;20553;-62
2023/07/10 11:50:03;;;;;;;7.85;2.58;;;22.50;99.90;;;;;;4983616;28;20472;-62
2023/07/10 11:52:31;;;;;;;8.10;2.47;;;22.60;99.90;;;;;;4977003;28;20043;-62
2023/07/10 11:54:56;;;;;;;9.38;3.60;;;22.40;99.90;;;;;;4986519;28;20042;-62
2023/07/10 11:57:24;;;;;;;10.75;2.70;;;22.30;99.90;;;;;;4984558;28;20053;-61
2023/07/10 11:59:58;;;;;;;8.32;2.47;;;22.50;99.90;;;;;;4991086;28;20070;-62
2023/07/10 12:02:33;;;;;;;;;;;22.10;99.90;;;;;;4991697;28;20044;-61
2023/07/10 12:05:10;;;;;;;8.27;1.95;;;22.60;1.00;;;;;;4990334;28;19964;-61
2023/07/10 12:07:35;;;;;;;6.60;1.85;;;22.50;1.00;;;;;;4991304;28;20042;-61
2023/07/10 12:10:01;;;;;;;6.80;1.90;;;22.50;1.00;;;;;;4990828;28;20563;-61
2023/07/10 12:12:31;;;;;;;10.20;2.08;;;;;;;;;;4990486;28;20113;-61
2023/07/10 12:15:00;;;;;;;4.70;1.60;;;22.90;99.90;;;;;;4990746;28;20091;-62
2023/07/10 12:17:29;;;;;;;6.88;2.42;;;22.70;99.90;;;;;;4984309;28;20244;-61
2023/07/10 12:19:55;;;;;;;7.43;1.70;;;22.70;99.90;;;;;;4990044;28;20042;-63
2023/07/10 12:22:23;;;;;;;4.72;1.70;;;22.80;92.70;;;;;;4991198;28;20121;-61
2023/07/10 12:25:00;;;;;;;6.18;1.88;;;21.70;49.30;;;;;;4977280;28;20113;-60
2023/07/10 12:27:32;;;;;;;7.53;1.80;;;22.70;1.00;;;;;;4989551;28;20381;-61
2023/07/10 12:29:58;;;;;;;8.90;2.90;;;22.70;1.00;;;;;;4971599;28;20500;-61
2023/07/10 12:32:26;;;;;;;8.68;1.83;;;22.20;99.90;;;;;;4990077;28;20069;-61
2023/07/10 12:34:54;;;;;;;4.80;1.90;;;22.70;1.00;;;;;;4990356;28;20117;-61
2023/07/10 12:37:21;;;;;;;6.20;1.70;;;22.00;1.00;;;;;;4977476;28;20436;-61
2023/07/10 12:39:50;;;;;;;6.90;1.77;;;;;;;;;;4973778;28;20196;-61
2023/07/10 12:42:23;;;;;;;5.15;1.40;;;23.10;99.90;;;;;;4985201;28;20092;-62
2023/07/10 12:44:49;;;;;;;4.60;1.52;;;23.50;99.90;;;;;;4982735;28;20054;-61
2023/07/10 12:47:14;;;;;;;6.80;1.83;;;25.30;99.90;;;;;;4987170;28;20046;-61
2023/07/10 12:49:50;;;;;;;5.70;1.55;;;25.30;99.90;;;;;;5005671;28;20080;-61
2023/07/10 12:52:16;;;;;;;4.93;1.60;;;26.40;99.90;;;;;;4980903;28;20030;-61
2023/07/10 12:54:46;;;;;;;6.68;1.77;;;27.40;99.90;;;;;;4986658;28;20042;-62
2023/07/10 12:57:27;;;;;;;4.68;1.52;;;27.10;99.90;;;;;;4982553;28;20050;-62
2023/07/10 13:00:01;;;;;;;6.18;1.92;;;28.10;99.90;;;;;;4983455;28;20416;-62
2023/07/10 13:02:35;;;;;;;7.75;1.70;;;28.50;99.90;;;;;;4988685;28;20050;-62
2023/07/10 13:05:00;;;;;;;7.22;1.80;;;28.80;99.90;;;;;;4989479;28;20057;-62